Etusivu
METAR-TAF:

METAR-TAF

Lentoasemat :

Winchester, Tennessee, Yhdysvallat

Leveyspiiri: 35-10-39N, Pituuspiiri: 086-03-58W, korkeus merenpinnasta: 298 m

Tämänhetkinen sää

Tämä raportti tehtiin 21 minuuttia sitten, kello 10.15 UTC
tyyntä
Lämpötila 20°C
Kosteus 94%
Ilmanpaine 1015 hPa
Näkyvyys: 4.8 km
selkeää
utua

METAR: KBGF 031015Z AUTO 00000KT 3SM BR CLR 20/19 A2998 RMK A01

Aika: 05:36 (10:36 UTC)


TAF: puuttuu

Säähavainnot ja -ennusteet yli 4000 lentoasemalta (METAR- ja TAF-raportit).

Käytössä olevat sääasemat on merkitty karttaan keltaisilla ja punaisilla pisteillä.

Aseta hiiri pisteen päälle nähdäksesi sääaseman nimen.

Klikkaa sitten nähdäksesi säähavainnot ja -ennusteet.

Kartan vaihtaminen: klikkaa mustalla rastilla varustettuja vihreitä pisteitä, niin voit zoomata sisään; viivalla varustettua vihreää pistettä, niin voit zoomata ulos tai vihreitä nuolia, niin pääset viereisille kartoille.


METAR-TAF: